createdAt,value
2018-07-14T00:01:16.970Z,15.00
2018-07-14T00:03:45.064Z,15.00
2018-07-14T00:06:12.583Z,15.00
2018-07-14T00:08:40.543Z,15.00
2018-07-14T00:11:09.924Z,15.00
2018-07-14T00:13:37.467Z,15.00
2018-07-14T00:16:05.970Z,15.00
2018-07-14T00:18:34.035Z,15.00
2018-07-14T00:21:01.559Z,15.00
2018-07-14T00:23:29.079Z,14.90
2018-07-14T00:26:00.843Z,14.80
2018-07-14T00:28:30.186Z,14.70
2018-07-14T00:30:58.058Z,14.70
2018-07-14T00:33:26.389Z,14.60
2018-07-14T00:35:53.895Z,14.70
2018-07-14T00:38:21.762Z,14.60
2018-07-14T00:40:49.647Z,14.60
2018-07-14T00:43:17.576Z,14.60
2018-07-14T00:45:45.114Z,14.60
2018-07-14T00:48:13.115Z,14.70
2018-07-14T00:50:41.003Z,14.70
2018-07-14T00:53:09.088Z,14.70
2018-07-14T00:55:36.767Z,14.70
2018-07-14T00:58:04.359Z,14.60
2018-07-14T01:00:31.930Z,14.50
2018-07-14T01:02:59.507Z,14.50
2018-07-14T01:05:27.475Z,14.50
2018-07-14T01:07:55.360Z,14.50
2018-07-14T01:10:23.283Z,14.50
2018-07-14T01:12:51.432Z,14.50
2018-07-14T01:15:18.960Z,14.40
2018-07-14T01:20:15.323Z,14.50
2018-07-14T01:22:42.813Z,14.50
2018-07-14T01:25:10.756Z,14.50
2018-07-14T01:27:38.243Z,14.50
2018-07-14T01:30:06.200Z,14.50
2018-07-14T01:32:34.792Z,14.50
2018-07-14T01:35:02.331Z,14.60
2018-07-14T01:37:29.872Z,14.60
2018-07-14T01:39:57.995Z,14.60
2018-07-14T01:44:53.680Z,14.70
2018-07-14T01:47:21.736Z,14.70
2018-07-14T01:49:49.223Z,14.70
2018-07-14T01:52:16.775Z,14.70
2018-07-14T01:54:44.274Z,14.80
2018-07-14T01:57:11.923Z,14.80
2018-07-14T01:59:39.511Z,14.90
2018-07-14T02:02:08.003Z,14.90
2018-07-14T02:04:36.287Z,14.90
2018-07-14T02:07:04.474Z,14.90
2018-07-14T02:09:32.578Z,15.00
2018-07-14T02:12:01.657Z,15.00
2018-07-14T02:14:29.167Z,15.10
2018-07-14T02:16:56.672Z,15.10
2018-07-14T02:19:25.031Z,15.20
2018-07-14T02:21:53.330Z,15.20
2018-07-14T02:24:20.954Z,15.30
2018-07-14T02:26:48.457Z,15.30
2018-07-14T02:29:16.363Z,15.30
2018-07-14T02:31:44.827Z,15.30
2018-07-14T02:34:12.322Z,15.30
2018-07-14T02:36:40.220Z,15.40
2018-07-14T02:39:08.331Z,15.40
2018-07-14T02:41:36.413Z,15.40
2018-07-14T02:46:32.715Z,15.50
2018-07-14T02:49:00.591Z,15.50
2018-07-14T02:51:28.416Z,15.50
2018-07-14T02:56:23.752Z,15.50
2018-07-14T02:58:51.275Z,15.50
2018-07-14T03:01:18.810Z,15.50
2018-07-14T03:03:47.368Z,15.50
2018-07-14T03:06:14.909Z,15.50
2018-07-14T03:08:42.992Z,15.50
2018-07-14T03:11:10.495Z,15.50
2018-07-14T03:13:37.983Z,15.50
2018-07-14T03:16:05.536Z,15.50
2018-07-14T03:18:33.360Z,15.50
2018-07-14T03:21:00.888Z,15.50
2018-07-14T03:23:28.535Z,15.50
2018-07-14T03:25:56.128Z,15.60
2018-07-14T03:28:24.224Z,15.60
2018-07-14T03:30:52.465Z,15.50
2018-07-14T03:33:20.674Z,15.50
2018-07-14T03:35:48.160Z,15.50
2018-07-14T03:38:15.752Z,15.50
2018-07-14T03:40:43.607Z,15.40
2018-07-14T03:43:11.355Z,15.40
2018-07-14T03:45:39.416Z,15.40
2018-07-14T03:48:06.944Z,15.50
2018-07-14T03:50:34.496Z,15.50
2018-07-14T03:53:02.040Z,15.50
2018-07-14T03:55:29.632Z,15.50
2018-07-14T03:57:57.324Z,15.50
2018-07-14T04:00:24.840Z,15.50
2018-07-14T04:02:52.352Z,15.50
2018-07-14T04:05:20.715Z,15.50
2018-07-14T04:07:48.842Z,15.50
2018-07-14T04:10:16.368Z,15.50
2018-07-14T04:12:43.923Z,15.60
2018-07-14T04:15:11.470Z,15.60
2018-07-14T04:17:39.337Z,15.60
2018-07-14T04:20:07.163Z,15.60
2018-07-14T04:22:34.647Z,15.60
2018-07-14T04:25:02.184Z,15.60
2018-07-14T04:27:29.727Z,15.60
2018-07-14T04:29:57.851Z,15.60
2018-07-14T04:32:26.328Z,15.70
2018-07-14T04:34:53.875Z,15.80
2018-07-14T04:37:22.787Z,15.80
2018-07-14T04:39:50.571Z,15.90
2018-07-14T04:42:18.111Z,16.00
2018-07-14T04:44:46.848Z,16.10
2018-07-14T04:47:14.671Z,16.20
2018-07-14T04:49:42.160Z,16.30
2018-07-14T04:52:09.655Z,16.30
2018-07-14T04:54:37.194Z,16.40
2018-07-14T04:57:04.711Z,16.50
2018-07-14T04:59:32.284Z,16.60
2018-07-14T05:02:00.398Z,16.60
2018-07-14T05:04:28.587Z,16.70
2018-07-14T05:06:56.616Z,16.80
2018-07-14T05:09:24.535Z,16.90
2018-07-14T05:11:52.122Z,17.00
2018-07-14T05:14:20.232Z,17.10
2018-07-14T05:16:47.792Z,17.10
2018-07-14T05:19:15.827Z,17.30
2018-07-14T05:21:43.329Z,17.30
2018-07-14T05:24:10.899Z,17.30
2018-07-14T05:26:38.558Z,17.40
2018-07-14T05:29:06.467Z,17.50
2018-07-14T05:31:34.584Z,17.60
2018-07-14T05:34:02.675Z,17.70
2018-07-14T05:36:30.709Z,17.80
2018-07-14T05:38:58.223Z,17.90
2018-07-14T05:41:25.713Z,17.90
2018-07-14T05:43:53.578Z,18.00
2018-07-14T05:46:21.069Z,18.00
2018-07-14T05:48:48.570Z,18.10
2018-07-14T05:51:16.162Z,18.20
2018-07-14T05:53:43.663Z,18.30
2018-07-14T05:56:11.275Z,18.30
2018-07-14T05:58:39.369Z,18.40
2018-07-14T06:01:07.218Z,18.50
2018-07-14T06:03:34.724Z,18.60
2018-07-14T06:06:02.583Z,18.70
2018-07-14T06:08:31.119Z,18.80
2018-07-14T06:10:58.634Z,18.90
2018-07-14T06:13:26.514Z,19.00
2018-07-14T06:15:54.013Z,19.00
2018-07-14T06:18:22.122Z,19.10
2018-07-14T06:20:49.636Z,19.20
2018-07-14T06:23:17.961Z,19.30
2018-07-14T06:25:45.487Z,19.40
2018-07-14T06:28:13.888Z,19.40
2018-07-14T06:30:41.398Z,19.50
2018-07-14T06:33:09.575Z,19.60
2018-07-14T06:35:37.285Z,19.70
2018-07-14T06:38:04.834Z,19.80
2018-07-14T06:40:32.384Z,19.90
2018-07-14T06:45:28.424Z,20.00
2018-07-14T06:47:56.338Z,20.20
2018-07-14T06:50:24.399Z,20.30
2018-07-14T06:52:52.031Z,20.50
2018-07-14T06:55:19.554Z,20.70
2018-07-14T06:57:47.463Z,20.80
2018-07-14T07:00:15.421Z,20.90
2018-07-14T07:02:43.070Z,21.20
2018-07-14T07:05:11.014Z,21.40
2018-07-14T07:07:39.050Z,21.50
2018-07-14T07:10:07.369Z,21.60
2018-07-14T07:12:34.883Z,21.70
2018-07-14T07:15:02.454Z,21.70
2018-07-14T07:19:58.618Z,21.50
2018-07-14T07:22:26.443Z,21.50
2018-07-14T07:24:54.015Z,21.40
2018-07-14T07:27:21.514Z,21.30
2018-07-14T07:29:49.794Z,21.30
2018-07-14T07:32:17.724Z,21.50
2018-07-14T07:34:45.318Z,21.70
2018-07-14T07:37:13.546Z,21.90
2018-07-14T07:39:41.090Z,22.20
2018-07-14T07:42:09.628Z,22.40
2018-07-14T07:44:37.746Z,22.70
2018-07-14T07:47:05.306Z,22.60
2018-07-14T07:49:32.837Z,22.70
2018-07-14T07:52:00.375Z,22.70
2018-07-14T07:54:27.883Z,22.80
2018-07-14T07:56:56.080Z,22.90
2018-07-14T07:59:24.254Z,22.90
2018-07-14T08:01:52.669Z,23.00
2018-07-14T08:04:21.260Z,23.10
2018-07-14T08:06:50.064Z,23.20
2018-07-14T08:09:18.433Z,23.30
2018-07-14T08:11:46.181Z,23.50
2018-07-14T08:14:14.114Z,23.60
2018-07-14T08:16:41.834Z,23.70
2018-07-14T08:19:10.242Z,23.80
2018-07-14T08:21:38.205Z,23.80
2018-07-14T08:24:07.167Z,23.90
2018-07-14T08:26:35.146Z,24.10
2018-07-14T08:29:03.463Z,24.30
2018-07-14T08:31:32.271Z,24.30
2018-07-14T08:34:00.629Z,24.50
2018-07-14T08:36:28.444Z,24.60
2018-07-14T08:38:57.437Z,24.70
2018-07-14T08:41:27.186Z,24.70
2018-07-14T08:46:23.630Z,25.10
2018-07-14T08:48:52.566Z,25.20
2018-07-14T08:51:21.275Z,25.30
2018-07-14T08:53:49.598Z,25.30
2018-07-14T08:56:17.583Z,25.30
2018-07-14T08:58:45.485Z,25.40
2018-07-14T09:01:14.590Z,25.60
2018-07-14T09:03:42.471Z,25.70
2018-07-14T09:06:10.678Z,25.70
2018-07-14T09:08:40.088Z,25.70
2018-07-14T09:11:07.938Z,25.80
2018-07-14T09:13:36.132Z,25.70
2018-07-14T09:16:04.789Z,25.80
2018-07-14T09:18:32.892Z,25.80
2018-07-14T09:21:00.734Z,25.90
2018-07-14T09:23:28.869Z,26.00
2018-07-14T09:25:58.162Z,26.10
2018-07-14T09:28:25.650Z,26.10
2018-07-14T09:30:53.171Z,26.20
2018-07-14T09:33:21.066Z,26.30
2018-07-14T09:35:49.247Z,26.40
2018-07-14T09:38:17.629Z,26.50
2018-07-14T09:40:45.147Z,26.50
2018-07-14T09:43:13.909Z,26.60
2018-07-14T09:45:41.463Z,26.70
2018-07-14T09:48:08.999Z,26.80
2018-07-14T09:50:36.571Z,26.80
2018-07-14T09:53:04.609Z,26.70
2018-07-14T09:55:32.159Z,26.80
2018-07-14T09:57:59.663Z,26.80
2018-07-14T10:00:34.903Z,26.80
2018-07-14T10:03:04.221Z,26.80
2018-07-14T10:05:33.167Z,26.80
2018-07-14T10:08:03.295Z,26.60
2018-07-14T10:10:31.802Z,26.60
2018-07-14T10:13:00.188Z,26.50
2018-07-14T10:15:28.562Z,26.40
2018-07-14T10:17:57.354Z,26.40
2018-07-14T10:20:25.802Z,26.50
2018-07-14T10:22:54.376Z,26.60
2018-07-14T10:25:22.896Z,26.80
2018-07-14T10:27:50.586Z,26.90
2018-07-14T10:30:18.485Z,26.90
2018-07-14T10:32:46.785Z,26.80
2018-07-14T10:35:14.498Z,26.80
2018-07-14T10:37:42.314Z,26.70
2018-07-14T10:40:10.218Z,26.70
2018-07-14T10:42:38.729Z,26.60
2018-07-14T10:45:07.099Z,26.60
2018-07-14T10:47:35.387Z,26.80
2018-07-14T10:50:03.880Z,27.00
2018-07-14T10:55:00.735Z,27.30
2018-07-14T10:57:29.199Z,27.40
2018-07-14T10:59:56.917Z,27.70
2018-07-14T11:02:24.914Z,27.90
2018-07-14T11:07:22.938Z,28.10
2018-07-14T11:09:51.306Z,27.90
2018-07-14T11:12:20.544Z,28.10
2018-07-14T11:14:48.586Z,28.10
2018-07-14T11:17:16.502Z,28.10
2018-07-14T11:19:44.557Z,27.90
2018-07-14T11:22:12.514Z,28.00
2018-07-14T11:24:40.055Z,28.00
2018-07-14T11:29:35.033Z,27.90
2018-07-14T11:32:03.471Z,28.00
2018-07-14T11:34:31.105Z,28.00
2018-07-14T11:36:58.679Z,27.90
2018-07-14T11:39:26.268Z,27.90
2018-07-14T11:41:53.782Z,27.90
2018-07-14T11:44:21.749Z,27.90
2018-07-14T11:46:50.006Z,27.90
2018-07-14T11:49:17.519Z,27.90
2018-07-14T11:51:45.081Z,28.10
2018-07-14T11:54:12.817Z,28.20
2018-07-14T11:56:40.277Z,28.20
2018-07-14T11:59:08.718Z,28.40
2018-07-14T12:04:04.781Z,28.70
2018-07-14T12:06:32.755Z,28.70
2018-07-14T12:09:00.760Z,28.70
2018-07-14T12:11:29.272Z,28.60
2018-07-14T12:13:56.847Z,28.50
2018-07-14T12:16:25.039Z,28.50
2018-07-14T12:18:52.930Z,28.50
2018-07-14T12:21:20.447Z,28.70
2018-07-14T12:23:48.032Z,28.70
2018-07-14T12:28:43.098Z,28.70
2018-07-14T12:31:10.882Z,28.70
2018-07-14T12:33:38.784Z,28.70
2018-07-14T12:36:06.434Z,28.70
2018-07-14T12:38:33.978Z,28.70
2018-07-14T12:41:02.393Z,28.80
2018-07-14T12:43:30.593Z,29.00
2018-07-14T12:45:59.224Z,29.00
2018-07-14T12:48:26.823Z,29.00
2018-07-14T12:50:54.376Z,29.20
2018-07-14T12:53:21.970Z,29.20
2018-07-14T12:56:04.853Z,29.10
2018-07-14T12:58:32.751Z,29.10
2018-07-14T13:01:00.903Z,29.00
2018-07-14T13:03:29.039Z,29.00
2018-07-14T13:05:57.062Z,29.00
2018-07-14T13:08:24.972Z,29.30
2018-07-14T13:10:52.506Z,29.30
2018-07-14T13:13:20.471Z,29.40
2018-07-14T13:15:48.339Z,29.40
2018-07-14T13:18:16.496Z,29.30
2018-07-14T13:20:44.163Z,29.30
2018-07-14T13:23:11.697Z,29.40
2018-07-14T13:25:39.295Z,29.40
2018-07-14T13:28:06.808Z,29.40
2018-07-14T13:30:34.432Z,29.60
2018-07-14T13:33:02.417Z,29.50
2018-07-14T13:35:29.963Z,29.60
2018-07-14T13:37:58.312Z,29.60
2018-07-14T13:40:25.841Z,29.40
2018-07-14T13:42:53.851Z,29.60
2018-07-14T13:45:21.819Z,29.80
2018-07-14T13:47:49.351Z,30.00
2018-07-14T13:50:16.914Z,30.00
2018-07-14T13:52:44.457Z,30.00
2018-07-14T13:55:12.006Z,29.70
2018-07-14T13:57:39.803Z,29.70
2018-07-14T14:00:08.449Z,30.20
2018-07-14T14:02:36.619Z,30.00
2018-07-14T14:05:04.972Z,30.70
2018-07-14T14:07:34.610Z,30.40
2018-07-14T14:10:02.682Z,30.10
2018-07-14T14:14:58.156Z,29.70
2018-07-14T14:17:26.047Z,30.10
2018-07-14T14:19:54.104Z,31.10
2018-07-14T14:22:21.610Z,31.90
2018-07-14T14:24:49.138Z,32.50
2018-07-14T14:27:17.217Z,33.10
2018-07-14T14:29:44.722Z,32.80
2018-07-14T14:32:12.639Z,32.60
2018-07-14T14:34:40.154Z,31.90
2018-07-14T14:37:07.701Z,31.30
2018-07-14T14:39:35.821Z,31.40
2018-07-14T14:42:03.353Z,31.40
2018-07-14T14:44:31.456Z,31.90
2018-07-14T14:49:26.733Z,30.80
2018-07-14T14:51:54.272Z,30.40
2018-07-14T14:54:21.780Z,30.30
2018-07-14T14:56:49.650Z,30.40
2018-07-14T14:59:18.033Z,30.70
2018-07-14T15:01:45.587Z,31.20
2018-07-14T15:04:13.547Z,30.60
2018-07-14T15:06:41.107Z,29.90
2018-07-14T15:09:09.258Z,29.50
2018-07-14T15:11:37.099Z,29.10
2018-07-14T15:14:05.851Z,28.50
2018-07-14T15:16:33.457Z,27.90
2018-07-14T15:19:01.530Z,27.40
2018-07-14T15:21:29.102Z,27.10
2018-07-14T15:23:56.623Z,26.90
2018-07-14T15:26:25.029Z,26.60
2018-07-14T15:28:52.586Z,26.60
2018-07-14T15:31:20.343Z,26.70
2018-07-14T15:33:48.470Z,27.50
2018-07-14T15:38:43.887Z,28.70
2018-07-14T15:41:11.386Z,29.00
2018-07-14T15:43:39.661Z,29.40
2018-07-14T15:48:34.642Z,29.40
2018-07-14T15:51:02.517Z,29.40
2018-07-14T15:53:30.079Z,28.70
2018-07-14T15:55:57.681Z,28.40
2018-07-14T15:58:26.415Z,28.70
2018-07-14T16:00:54.558Z,28.80
2018-07-14T16:03:22.098Z,29.10
2018-07-14T16:05:50.216Z,29.80
2018-07-14T16:08:18.176Z,29.80
2018-07-14T16:10:45.688Z,29.90
2018-07-14T16:13:13.170Z,29.70
2018-07-14T16:15:40.747Z,29.90
2018-07-14T16:20:36.402Z,29.80
2018-07-14T16:23:04.016Z,29.10
2018-07-14T16:25:32.055Z,28.50
2018-07-14T16:27:59.574Z,28.00
2018-07-14T16:30:27.095Z,27.50
2018-07-14T16:32:55.082Z,27.10
2018-07-14T16:35:23.007Z,26.80
2018-07-14T16:40:18.064Z,26.50
2018-07-14T16:42:45.621Z,26.30
2018-07-14T16:45:14.165Z,26.20
2018-07-14T16:47:41.725Z,25.90
2018-07-14T16:50:09.330Z,25.60
2018-07-14T16:52:36.930Z,25.40
2018-07-14T16:55:06.079Z,25.30
2018-07-14T16:57:34.088Z,25.30
2018-07-14T17:00:02.435Z,25.10
2018-07-14T17:02:31.840Z,25.00
2018-07-14T17:05:00.121Z,25.00
2018-07-14T17:09:56.586Z,24.90
2018-07-14T17:14:52.060Z,25.20
2018-07-14T17:17:19.632Z,25.50
2018-07-14T17:19:47.587Z,25.90
2018-07-14T17:22:15.734Z,26.40
2018-07-14T17:27:10.763Z,27.20
2018-07-14T17:29:38.258Z,26.90
2018-07-14T17:32:07.014Z,26.70
2018-07-14T17:34:34.560Z,26.30
2018-07-14T17:37:02.091Z,26.00
2018-07-14T17:39:29.652Z,25.50
2018-07-14T17:41:57.209Z,25.30
2018-07-14T17:44:25.051Z,25.10
2018-07-14T17:49:20.061Z,24.80
2018-07-14T17:51:48.084Z,24.50
2018-07-14T17:54:15.659Z,24.30
2018-07-14T17:56:43.522Z,24.00
2018-07-14T17:59:11.575Z,23.90
2018-07-14T18:01:39.458Z,23.70
2018-07-14T18:04:08.213Z,23.50
2018-07-14T18:06:36.803Z,23.50
2018-07-14T18:09:06.664Z,23.40
2018-07-14T18:11:34.221Z,23.40
2018-07-14T18:14:02.223Z,23.20
2018-07-14T18:16:30.226Z,23.00
2018-07-14T18:18:58.122Z,22.80
2018-07-14T18:21:25.939Z,22.70
2018-07-14T18:23:53.907Z,22.70
2018-07-14T18:26:22.367Z,22.50
2018-07-14T18:28:49.881Z,22.50
2018-07-14T18:31:19.407Z,22.40
2018-07-14T18:33:46.937Z,22.30
2018-07-14T18:36:14.497Z,22.20
2018-07-14T18:38:42.056Z,22.10
2018-07-14T18:41:09.635Z,22.00
2018-07-14T18:43:37.800Z,21.80
2018-07-14T18:46:05.323Z,21.70
2018-07-14T18:48:32.826Z,21.50
2018-07-14T18:51:01.019Z,21.40
2018-07-14T18:53:29.340Z,21.30
2018-07-14T18:55:56.832Z,21.20
2018-07-14T18:58:25.474Z,21.10
2018-07-14T19:00:53.880Z,21.10
2018-07-14T19:03:21.713Z,21.10
2018-07-14T19:05:49.686Z,21.00
2018-07-14T19:08:17.584Z,21.00
2018-07-14T19:10:45.136Z,20.90
2018-07-14T19:13:12.648Z,20.80
2018-07-14T19:15:40.511Z,20.70
2018-07-14T19:18:08.864Z,20.70
2018-07-14T19:20:36.374Z,20.50
2018-07-14T19:23:04.253Z,20.40
2018-07-14T19:25:31.791Z,20.40
2018-07-14T19:28:00.256Z,20.30
2018-07-14T19:30:27.847Z,20.20
2018-07-14T19:32:55.818Z,20.10
2018-07-14T19:35:24.036Z,19.90
2018-07-14T19:37:51.653Z,19.80
2018-07-14T19:40:20.232Z,19.80
2018-07-14T19:42:47.754Z,19.70
2018-07-14T19:45:15.970Z,19.60
2018-07-14T19:47:43.983Z,19.60
2018-07-14T19:50:11.909Z,19.50
2018-07-14T19:52:39.423Z,19.40
2018-07-14T19:55:06.999Z,19.40
2018-07-14T19:57:34.938Z,19.40
2018-07-14T20:00:03.394Z,19.30
2018-07-14T20:02:30.908Z,19.20
2018-07-14T20:04:59.194Z,19.20
2018-07-14T20:07:27.272Z,19.10
2018-07-14T20:09:56.250Z,19.10
2018-07-14T20:12:23.869Z,19.20
2018-07-14T20:14:52.053Z,19.10
2018-07-14T20:17:19.592Z,19.00
2018-07-14T20:19:47.707Z,19.00
2018-07-14T20:22:15.791Z,19.00
2018-07-14T20:24:43.842Z,18.90
2018-07-14T20:27:11.378Z,18.80
2018-07-14T20:29:38.918Z,18.70
2018-07-14T20:32:07.199Z,18.60
2018-07-14T20:34:34.694Z,18.50
2018-07-14T20:37:02.242Z,18.50
2018-07-14T20:39:29.786Z,18.40
2018-07-14T20:41:57.303Z,18.40
2018-07-14T20:44:25.693Z,18.30
2018-07-14T20:46:53.210Z,18.40
2018-07-14T20:49:21.331Z,18.30
2018-07-14T20:51:48.846Z,18.30
2018-07-14T20:54:16.909Z,18.30
2018-07-14T20:56:44.782Z,18.30
2018-07-14T20:59:12.712Z,18.20
2018-07-14T21:01:40.214Z,18.10
2018-07-14T21:04:08.178Z,18.10
2018-07-14T21:06:36.257Z,18.00
2018-07-14T21:09:04.942Z,17.90
2018-07-14T21:11:32.465Z,17.90
2018-07-14T21:14:00.112Z,17.80
2018-07-14T21:16:28.326Z,17.90
2018-07-14T21:18:56.507Z,17.90
2018-07-14T21:21:24.247Z,17.90
2018-07-14T21:23:52.072Z,17.80
2018-07-14T21:26:19.583Z,17.70
2018-07-14T21:28:47.127Z,17.60
2018-07-14T21:31:15.357Z,17.60
2018-07-14T21:33:42.856Z,17.60
2018-07-14T21:36:10.931Z,17.60
2018-07-14T21:38:38.471Z,17.60
2018-07-14T21:41:06.021Z,17.60
2018-07-14T21:43:33.996Z,17.50
2018-07-14T21:46:01.964Z,17.60
2018-07-14T21:48:30.111Z,17.50
2018-07-14T21:50:58.173Z,17.50
2018-07-14T21:53:25.690Z,17.60
2018-07-14T21:55:53.584Z,17.40
2018-07-14T21:58:21.074Z,17.40
2018-07-14T22:00:54.971Z,17.30
2018-07-14T22:03:22.503Z,17.20
2018-07-14T22:05:51.973Z,17.20
2018-07-14T22:08:19.904Z,17.30
2018-07-14T22:10:47.477Z,17.20
2018-07-14T22:13:15.017Z,17.20
2018-07-14T22:15:42.544Z,17.30
2018-07-14T22:18:10.732Z,17.30
2018-07-14T22:20:38.765Z,17.30
2018-07-14T22:23:06.306Z,17.20
2018-07-14T22:25:33.825Z,17.20
2018-07-14T22:28:01.685Z,17.10
2018-07-14T22:30:29.580Z,17.00
2018-07-14T22:32:57.498Z,17.00
2018-07-14T22:35:24.997Z,16.90
2018-07-14T22:37:52.602Z,16.90
2018-07-14T22:40:20.702Z,16.90
2018-07-14T22:42:48.575Z,16.90
2018-07-14T22:45:16.420Z,16.90
2018-07-14T22:47:44.399Z,17.00
2018-07-14T22:50:12.378Z,17.00
2018-07-14T22:52:40.298Z,17.00
2018-07-14T22:55:08.117Z,17.00
2018-07-14T22:57:35.794Z,17.00
2018-07-14T23:00:03.767Z,17.00
2018-07-14T23:02:31.324Z,16.90
2018-07-14T23:04:59.389Z,16.90
2018-07-14T23:07:27.203Z,16.90
2018-07-14T23:09:55.035Z,16.90
2018-07-14T23:12:22.558Z,16.90
2018-07-14T23:14:50.083Z,16.80
2018-07-14T23:17:17.610Z,16.80
2018-07-14T23:19:45.602Z,16.70
2018-07-14T23:22:13.109Z,16.70
2018-07-14T23:24:40.673Z,16.70
2018-07-14T23:27:08.197Z,16.60
2018-07-14T23:29:36.287Z,16.60
2018-07-14T23:32:04.337Z,16.60
2018-07-14T23:34:31.912Z,16.60
2018-07-14T23:36:59.891Z,16.60
2018-07-14T23:39:27.775Z,16.60
2018-07-14T23:41:55.642Z,16.50
2018-07-14T23:44:23.498Z,16.50
2018-07-14T23:46:51.524Z,16.50
2018-07-14T23:49:19.449Z,16.40
2018-07-14T23:51:47.336Z,16.40
2018-07-14T23:54:14.853Z,16.30
2018-07-14T23:56:42.375Z,16.30
2018-07-14T23:59:09.933Z,16.30
